Página principal
METAR-TAF:

METAR-TAF

Aeroportos :

Oslo, Noruega

Aeroporto de Oslo Gardermoen

latitude: 60-12N, longitude: 011-05E, altura: 208 m

Observação actual do tempo

O boletim foi feito há 12 minutos, às 23:20 UTC
Vento 4 kt de nordeste
Temperatura 2°C
Humidade 93%
Pressão 1019 hPa
Visibilidade 10 km ou mais
chuva fraca

METAR: ENGM 192320Z 04004KT 9999 -RA NSC 02/01 Q1019

Hora: 01:32 (23:32 UTC)

Previsão

Previsão válida de 19 às 18 UTC a 20 às 18 UTC
Vento 7 kt de nordeste
Visibilidade 10 km ou mais
Poucas nuvensa uma altura de 3000 ft
Nuvens fragmentadasa uma altura de 8000 ft
Tornando-se
de 20 às 09 UTC a 20 às 12 UTC
Nuvens fragmentadasa uma altura de 1400 ft
Temporariamente
de 20 às 12 UTC a 20 às 18 UTC
Visibilidade: 4000 m
Encobertoa uma altura de 800 ft
chuva fraca, chuvisco, neblina

TAF: ENGM 1918/2018 05007KT 9999 FEW030 BKN080 BECMG 2009/2012 BKN014 TEMPO 2012/2018 4000 -RADZ BR OVC008

Observações e previsões do tempo de mais de 4000 aeroportos (mensagens METAR e TAF).

As estações disponíveis são os pontos amarelos e vermelhos sobre o mapa.

Mova o rato sobre o mapa para ver o nome da estação.

Depois clique no ponto para visualizar as observações e previsões meteorológicas.

Para alterar o mapa : clique nos botões verdes com uma cruz preta para aumentar o zoom; no botão verde com uma pitada de zoom; ou nas setas verdes para mapas adjacentes.


METAR-TAF: